Tropical Cyclones
[Index]
Main Index Home Page Stock Weather Photos Extreme Storms Discussion Storm News and Storm Chasing Reports Tropical Cyclones / Hurricanes / Typhoons Weather Data and Links Wild Fires / Bushfires Weather Observation Techniques Weather Picture Catalogue Tornado Pictures and Reports Stock Video Footage and DVDs for sale
Season 1992-1993 Tropical Cyclone MONTY Track Map
Season 1992-1993 Summaries: [BoM-AU] [JTWC-AU] [JTWC-SIO] [JTWC-SPAC] [JTWC-SH]
<<- Previous TC | JTWC 1992-1993 Season | Next TC ->>

click for intensity scale information  Lat/long Grid: Show Hide

 Date Labels: Show Hide

Joint Typhoon Warning Centre Cyclone Data

Name: MONTY

08 Apr 1993 18:00 UTC to 15 Apr 1993 00:00 UTC

    date/time    lat    long     hPa   cat  kts
1993-04-08 18   12.5   104.5                  20          
1993-04-09 00   12.8   104.8                  20          
1993-04-09 06   13.1   105.0                  20          
1993-04-09 12   13.5   105.4                  20          
1993-04-09 18   14.1   105.8                  20          
1993-04-10 00   14.6   106.0                  25          
1993-04-10 06   15.0   105.9                  25          
1993-04-10 12   15.5   105.6                  30          
1993-04-10 18   16.1   105.5            1     40          
1993-04-11 00   16.7   105.7            1     50          
1993-04-11 06   17.5   106.2            1     50          
1993-04-11 12   18.2   106.8            1     50          
1993-04-11 18   18.8   107.5            1     45          
1993-04-12 00   19.1   108.1            1     40          
1993-04-12 06   19.3   108.3                  30          
1993-04-12 12   19.5   108.4                  30          
1993-04-12 18   19.5   108.0                  25          
1993-04-13 00   19.6   107.6                  25          
1993-04-13 06   19.8   107.3                  25          
1993-04-13 12   20.2   107.1                  20          
1993-04-13 18   20.6   107.0                  20          
1993-04-14 00   21.0   107.0                  15          
1993-04-14 06   21.4   107.0                  15          
1993-04-14 12   21.8   107.1                  15          
1993-04-14 18   22.4   107.3                  15          
1993-04-15 00   22.9   107.6                  15          
Winds are 1-min average.

Tropical cyclone tracks developed by Michael Bath using data from the Joint Typhoon Warning Centre Best Tracks and Google Maps.


[Australian Severe Weather index] [Copyright Notice] [Email Contacts] [Search This Site] [Privacy Policy]
Document: tropical_cyclone_monty.htm Updated: 18 September 2016